Time;durP1;ratioP1;P1;durP2;ratioP2;P2;SDS_P1;SDS_P2;PMS_P1;PMS_P2;Temp;Humidity;BMP_temperature;BMP_pressure;BME280_temperature;BME280_humidity;BME280_pressure;Samples;Min_cycle;Max_cycle;Signal;HPM_P1;HPM_P2
2023/08/09 00:04:46;;;;;;;1.30;1.20;;;24.20;59.40;;;;;;218895;1279;22590;-52
2023/08/09 00:09:50;;;;;;;1.50;1.40;;;24.10;59.10;;;;;;218997;1283;25612;-50
2023/08/09 00:14:55;;;;;;;1.50;1.40;;;24.10;59.00;;;;;;218535;1283;22567;-50
2023/08/09 00:20:08;;;;;;;1.60;1.50;;;24.20;59.50;;;;;;218843;1289;24337;-52
2023/08/09 00:25:13;;;;;;;1.10;1.10;;;24.20;58.90;;;;;;218858;1277;24276;-50
2023/08/09 00:30:18;;;;;;;1.30;1.20;;;24.10;59.10;;;;;;218883;1277;22538;-50
2023/08/09 00:35:22;;;;;;;1.50;1.40;;;24.10;59.40;;;;;;218866;1290;22540;-50
2023/08/09 00:40:26;;;;;;;1.20;1.20;;;24.10;59.10;;;;;;219092;1276;22534;-51
2023/08/09 00:45:33;;;;;;;1.50;1.40;;;24.00;59.00;;;;;;218900;1290;22672;-47
2023/08/09 00:50:40;;;;;;;1.30;1.20;;;24.10;59.00;;;;;;218888;1277;24238;-50
2023/08/09 00:55:45;;;;;;;1.90;1.20;;;24.10;59.00;;;;;;218801;1280;25341;-49
2023/08/09 01:00:49;;;;;;;1.70;1.30;;;24.00;59.10;;;;;;219055;1286;22649;-51
2023/08/09 01:06:15;;;;;;;1.40;1.30;;;24.00;59.10;;;;;;218909;1289;22572;-49
2023/08/09 01:11:49;;;;;;;1.40;1.30;;;24.00;58.90;;;;;;218731;1283;22552;-49
2023/08/09 01:16:55;;;;;;;1.30;1.20;;;24.00;58.90;;;;;;218984;1291;25312;-50
2023/08/09 01:22:04;;;;;;;1.80;1.70;;;24.00;59.00;;;;;;219075;1286;24412;-51
2023/08/09 01:27:11;;;;;;;2.20;0.90;;;24.00;59.10;;;;;;218888;1286;22692;-50
2023/08/09 01:32:15;;;;;;;1.10;1.00;;;24.00;59.20;;;;;;218652;1289;22546;-48
2023/08/09 01:37:36;;;;;;;1.70;1.30;;;24.00;59.30;;;;;;218981;1270;24121;-51
2023/08/09 01:42:40;;;;;;;1.20;1.10;;;23.90;59.10;;;;;;218859;1279;22709;-49
2023/08/09 01:47:45;;;;;;;1.00;1.00;;;23.90;59.30;;;;;;218840;1289;22530;-47
2023/08/09 01:52:50;;;;;;;1.20;1.10;;;23.90;59.60;;;;;;218751;1276;22536;-47
2023/08/09 01:57:55;;;;;;;1.70;1.10;;;23.90;59.50;;;;;;218694;1276;23904;-50
2023/08/09 02:02:59;;;;;;;1.50;1.40;;;23.90;59.10;;;;;;218856;1290;22537;-52
2023/08/09 02:08:04;;;;;;;1.50;1.20;;;23.90;59.10;;;;;;218953;1290;22548;-49
2023/08/09 02:13:08;;;;;;;1.20;1.10;;;23.80;59.60;;;;;;219097;1291;24241;-51
2023/08/09 02:18:13;;;;;;;1.50;1.40;;;23.80;59.30;;;;;;218579;1287;221042;-52
2023/08/09 02:23:17;;;;;;;1.70;1.60;;;23.80;59.10;;;;;;218904;1279;23949;-51
2023/08/09 02:28:22;;;;;;;1.20;1.10;;;23.90;59.20;;;;;;218425;1277;22806;-49
2023/08/09 02:33:26;;;;;;;1.40;1.30;;;23.80;59.30;;;;;;219003;1289;22560;-49
2023/08/09 02:38:34;;;;;;;1.30;1.20;;;23.80;59.20;;;;;;218908;1289;24242;-49
2023/08/09 02:43:38;;;;;;;1.30;1.20;;;23.80;59.30;;;;;;218846;1283;22772;-52
2023/08/09 02:48:45;;;;;;;1.20;1.10;;;23.90;59.20;;;;;;218822;1288;22551;-51
2023/08/09 02:54:04;;;;;;;1.20;1.10;;;23.70;59.40;;;;;;218826;1286;22555;-49
2023/08/09 02:59:09;;;;;;;1.30;1.20;;;23.70;59.20;;;;;;218694;1289;22634;-51
2023/08/09 03:04:13;;;;;;;1.10;1.10;;;23.70;59.50;;;;;;219155;1286;25564;-51
2023/08/09 03:09:17;;;;;;;0.90;0.90;;;23.70;59.20;;;;;;218715;1292;22597;-51
2023/08/09 03:14:22;;;;;;;0.90;0.90;;;23.80;59.60;;;;;;218780;1277;22537;-47
2023/08/09 03:19:26;;;;;;;1.40;1.10;;;23.80;59.40;;;;;;218948;1277;22537;-48
2023/08/09 03:24:31;;;;;;;1.20;1.10;;;23.60;59.20;;;;;;218835;1288;24071;-48
2023/08/09 03:29:44;;;;;;;1.30;1.10;;;23.70;59.50;;;;;;218836;1283;25406;-50
2023/08/09 03:34:55;;;;;;;1.20;1.10;;;23.70;59.40;;;;;;218845;1286;22671;-48
2023/08/09 03:39:59;;;;;;;1.00;1.00;;;23.60;59.40;;;;;;218805;1289;22540;-47
2023/08/09 03:45:05;;;;;;;1.30;1.20;;;23.70;59.80;;;;;;218731;1279;24248;-53
2023/08/09 03:50:10;;;;;;;1.30;1.10;;;23.70;59.20;;;;;;218813;1283;22672;-49
2023/08/09 03:55:15;;;;;;;1.50;1.40;;;23.60;59.30;;;;;;218795;1283;25420;-48
2023/08/09 04:00:22;;;;;;;1.50;1.20;;;23.60;59.40;;;;;;218797;1289;22655;-49
2023/08/09 04:05:26;;;;;;;1.10;1.10;;;23.60;59.70;;;;;;219029;1274;22534;-47
2023/08/09 04:10:31;;;;;;;1.40;1.30;;;23.50;59.40;;;;;;218979;1291;25671;-50
2023/08/09 04:15:35;;;;;;;1.10;1.10;;;23.60;59.30;;;;;;218906;1276;22600;-52
2023/08/09 04:20:41;;;;;;;1.30;1.20;;;23.50;59.50;;;;;;218822;1291;25646;-53
2023/08/09 04:25:46;;;;;;;1.30;1.20;;;23.60;59.40;;;;;;218731;1289;25718;-51
2023/08/09 04:30:51;;;;;;;1.80;1.10;;;23.60;59.30;;;;;;218757;1289;25514;-51
2023/08/09 04:36:04;;;;;;;1.70;1.00;;;23.50;59.30;;;;;;218810;1291;23344;-50
2023/08/09 04:41:12;;;;;;;0.90;0.90;;;23.50;59.20;;;;;;218832;1292;24006;-49
2023/08/09 04:46:17;;;;;;;0.90;0.90;;;23.60;59.40;;;;;;218929;1283;22621;-48
2023/08/09 04:51:24;;;;;;;1.10;0.90;;;23.60;59.70;;;;;;218882;1266;24068;-52
2023/08/09 04:56:31;;;;;;;1.40;1.30;;;23.50;59.30;;;;;;218769;1277;22540;-50
2023/08/09 05:01:35;;;;;;;1.10;1.10;;;23.60;59.70;;;;;;218852;1283;24225;-50
2023/08/09 05:06:40;;;;;;;1.20;1.10;;;23.50;59.30;;;;;;218831;1291;22543;-52
2023/08/09 05:11:44;;;;;;;1.30;1.20;;;23.50;59.20;;;;;;218729;1291;24336;-48
2023/08/09 05:16:51;;;;;;;1.30;1.20;;;23.50;59.40;;;;;;218677;1291;24189;-50
2023/08/09 05:21:55;;;;;;;2.60;1.00;;;23.50;59.40;;;;;;218614;1291;22623;-49
2023/08/09 05:27:00;;;;;;;1.40;1.10;;;23.50;59.30;;;;;;218813;1289;22543;-49
2023/08/09 05:32:05;;;;;;;1.30;1.10;;;23.60;59.10;;;;;;218643;1291;22688;-48
2023/08/09 05:37:10;;;;;;;1.10;1.00;;;23.50;59.50;;;;;;218664;1291;25358;-52
2023/08/09 05:42:14;;;;;;;1.00;1.00;;;23.50;59.30;;;;;;218824;1286;23921;-49
2023/08/09 05:47:19;;;;;;;1.40;1.30;;;23.60;59.30;;;;;;218621;1286;22561;-51
2023/08/09 05:52:23;;;;;;;0.90;0.90;;;23.60;59.50;;;;;;218583;1289;22818;-48
2023/08/09 05:57:28;;;;;;;1.10;1.00;;;23.60;59.30;;;;;;218572;1283;22574;-48
2023/08/09 06:02:35;;;;;;;1.10;1.10;;;23.60;59.40;;;;;;218808;1279;24380;-49
2023/08/09 06:07:40;;;;;;;2.10;1.30;;;23.60;59.30;;;;;;218842;1291;24225;-51
2023/08/09 06:12:44;;;;;;;1.50;1.30;;;23.60;59.40;;;;;;218855;1291;22627;-51
2023/08/09 06:17:49;;;;;;;1.30;1.20;;;23.60;59.40;;;;;;218795;1285;22750;-50
2023/08/09 06:22:53;;;;;;;1.10;1.00;;;23.60;59.60;;;;;;218705;1286;22556;-48
2023/08/09 06:27:57;;;;;;;1.10;1.00;;;23.60;59.30;;;;;;218781;1291;22690;-49
2023/08/09 06:33:02;;;;;;;1.40;1.30;;;23.60;59.90;;;;;;218729;1276;22540;-54
2023/08/09 06:38:07;;;;;;;1.70;1.30;;;23.60;59.20;;;;;;219076;1290;22548;-49
2023/08/09 06:43:18;;;;;;;1.50;1.20;;;23.60;59.30;;;;;;218758;1289;23041;-50
2023/08/09 06:48:24;;;;;;;1.10;1.00;;;23.60;59.60;;;;;;218853;1286;22543;-46
2023/08/09 06:53:29;;;;;;;1.30;1.20;;;23.70;59.90;;;;;;218889;1291;22656;-53
2023/08/09 06:58:33;;;;;;;2.00;1.00;;;23.70;59.60;;;;;;218918;1288;25651;-50
2023/08/09 07:03:38;;;;;;;1.80;1.50;;;23.70;59.30;;;;;;218739;1276;22900;-47
2023/08/09 07:08:43;;;;;;;1.20;1.10;;;23.80;59.10;;;;;;218674;1291;24262;-51
2023/08/09 07:13:47;;;;;;;2.40;1.40;;;23.70;58.90;;;;;;218736;1291;22631;-48
2023/08/09 07:18:52;;;;;;;2.20;1.50;;;23.70;59.10;;;;;;218854;1284;22589;-49
2023/08/09 07:23:56;;;;;;;1.40;1.30;;;23.70;59.00;;;;;;218749;1289;23465;-50
2023/08/09 07:29:01;;;;;;;1.60;1.50;;;23.80;59.00;;;;;;218765;1287;26772;-49
2023/08/09 07:34:06;;;;;;;1.50;1.40;;;23.70;59.10;;;;;;218891;1289;25351;-48
2023/08/09 07:39:10;;;;;;;1.20;1.20;;;23.80;59.00;;;;;;218924;1291;24297;-52
2023/08/09 07:44:14;;;;;;;1.90;1.80;;;23.70;59.00;;;;;;218780;1279;23941;-48
2023/08/09 07:49:18;;;;;;;1.40;1.30;;;23.80;59.00;;;;;;218769;1289;22533;-48
2023/08/09 07:54:23;;;;;;;3.00;1.70;;;23.70;59.30;;;;;;218864;1291;24194;-51
2023/08/09 07:59:27;;;;;;;1.50;1.40;;;23.70;59.30;;;;;;218927;1285;24704;-49
2023/08/09 08:04:31;;;;;;;1.20;1.10;;;23.70;59.30;;;;;;218962;1276;22662;-49
2023/08/09 08:09:40;;;;;;;1.20;1.10;;;23.70;59.30;;;;;;218975;1291;24315;-48
2023/08/09 08:14:44;;;;;;;1.40;1.30;;;23.70;59.20;;;;;;218939;1291;22821;-50
2023/08/09 08:19:49;;;;;;;2.50;1.30;;;23.70;59.20;;;;;;218622;1286;22624;-51
2023/08/09 08:24:53;;;;;;;1.70;1.10;;;23.70;59.20;;;;;;218855;1291;22674;-49
2023/08/09 08:30:01;;;;;;;1.30;1.20;;;23.70;59.30;;;;;;218928;1286;22557;-50
2023/08/09 08:35:11;;;;;;;1.90;1.30;;;23.60;59.30;;;;;;218792;1289;22546;-49
2023/08/09 08:40:20;;;;;;;1.60;1.50;;;23.70;59.40;;;;;;218961;1286;23827;-50
2023/08/09 08:45:26;;;;;;;1.30;1.20;;;23.70;59.30;;;;;;218632;1276;24249;-48
2023/08/09 08:50:32;;;;;;;1.10;1.00;;;23.60;59.30;;;;;;218793;1289;22702;-48
2023/08/09 08:55:39;;;;;;;1.30;1.20;;;23.70;59.40;;;;;;218909;1288;25440;-49
2023/08/09 09:00:43;;;;;;;1.80;1.40;;;23.70;59.30;;;;;;218807;1291;24383;-53
2023/08/09 09:05:49;;;;;;;1.40;1.30;;;23.70;59.40;;;;;;218864;1291;22610;-49
2023/08/09 09:10:54;;;;;;;1.70;0.90;;;23.60;59.50;;;;;;218874;1288;22541;-50
2023/08/09 09:15:58;;;;;;;1.30;1.10;;;23.60;59.50;;;;;;218671;1285;22554;-48
2023/08/09 09:21:03;;;;;;;1.40;1.20;;;23.60;60.00;;;;;;219002;1276;25450;-49
2023/08/09 09:26:09;;;;;;;1.20;1.20;;;23.60;59.40;;;;;;219018;1279;22530;-51
2023/08/09 09:31:17;;;;;;;1.80;1.10;;;23.60;59.50;;;;;;218997;1292;22985;-50
2023/08/09 09:36:22;;;;;;;1.20;1.10;;;23.60;59.50;;;;;;218778;1286;22550;-50
2023/08/09 09:41:26;;;;;;;1.10;1.00;;;23.60;59.60;;;;;;218797;1276;22661;-47
2023/08/09 09:46:30;;;;;;;1.60;1.50;;;23.60;59.70;;;;;;218967;1285;22533;-46
2023/08/09 09:51:42;;;;;;;1.40;1.30;;;23.60;59.70;;;;;;218888;1291;24804;-49
2023/08/09 09:56:47;;;;;;;3.80;1.30;;;23.60;59.50;;;;;;218513;1286;24251;-50
2023/08/09 10:01:53;;;;;;;4.20;1.80;;;23.60;60.00;;;;;;218593;1279;24182;-49
2023/08/09 10:07:00;;;;;;;9.90;1.90;;;23.60;59.90;;;;;;218860;1286;24411;-51
2023/08/09 10:12:08;;;;;;;11.10;2.10;;;23.70;59.90;;;;;;218875;1290;22664;-51
2023/08/09 10:17:13;;;;;;;4.80;1.60;;;23.80;59.80;;;;;;218688;1291;22553;-49
2023/08/09 10:22:19;;;;;;;4.50;2.00;;;23.70;59.60;;;;;;218905;1275;24416;-48
2023/08/09 10:27:49;;;;;;;5.40;1.80;;;23.80;59.40;;;;;;218747;1289;24291;-53
2023/08/09 10:32:56;;;;;;;5.60;1.80;;;23.70;60.40;;;;;;218567;1288;24360;-51
2023/08/09 10:38:06;;;;;;;2.10;1.50;;;23.60;60.90;;;;;;218631;1276;22537;-49
2023/08/09 10:43:17;;;;;;;5.80;1.70;;;23.70;60.90;;;;;;218920;1286;22666;-50
2023/08/09 10:48:24;;;;;;;3.20;2.10;;;23.60;60.90;;;;;;218874;1276;24477;-48
2023/08/09 10:53:28;;;;;;;4.90;1.70;;;23.60;60.90;;;;;;218544;1283;22553;-50
2023/08/09 10:58:32;;;;;;;4.40;1.70;;;23.70;60.50;;;;;;218608;1276;22744;-50
2023/08/09 11:03:36;;;;;;;5.20;1.60;;;23.80;60.80;;;;;;218827;1283;24269;-53
2023/08/09 11:08:40;;;;;;;2.40;1.40;;;23.80;60.60;;;;;;219085;1288;23038;-49
2023/08/09 11:13:44;;;;;;;1.60;1.40;;;23.80;60.60;;;;;;218669;1283;22545;-50
2023/08/09 11:19:02;;;;;;;5.00;1.60;;;23.70;60.90;;;;;;218713;1289;22743;-48
2023/08/09 11:24:07;;;;;;;1.60;1.50;;;23.70;60.70;;;;;;218926;1283;22538;-48
2023/08/09 11:29:12;;;;;;;2.30;1.30;;;23.70;60.70;;;;;;218895;1283;24000;-51
2023/08/09 11:34:21;;;;;;;1.70;1.60;;;23.70;60.50;;;;;;218881;1286;26547;-50
2023/08/09 11:39:28;;;;;;;1.60;1.10;;;23.70;60.50;;;;;;218829;1286;25309;-54
2023/08/09 11:44:38;;;;;;;2.80;1.40;;;23.70;60.50;;;;;;218745;1284;24986;-50
2023/08/09 11:49:43;;;;;;;2.50;1.50;;;23.70;60.90;;;;;;218839;1283;22566;-50
2023/08/09 11:54:47;;;;;;;2.10;1.50;;;23.80;60.70;;;;;;218571;1291;22543;-50
2023/08/09 11:59:54;;;;;;;3.20;1.60;;;23.80;60.20;;;;;;218938;1277;25416;-48
2023/08/09 12:05:19;;;;;;;1.80;1.70;;;23.80;60.80;;;;;;218796;1276;22699;-49
2023/08/09 12:10:23;;;;;;;2.00;1.20;;;23.80;60.50;;;;;;218961;1277;22590;-51
2023/08/09 12:15:28;;;;;;;2.50;1.50;;;23.90;60.10;;;;;;218784;1276;24083;-49
2023/08/09 12:20:32;;;;;;;1.50;1.40;;;23.90;60.00;;;;;;218912;1284;25252;-52
2023/08/09 12:25:37;;;;;;;2.80;1.30;;;23.90;60.40;;;;;;219041;1285;22679;-50
2023/08/09 12:30:42;;;;;;;3.20;1.50;;;23.70;60.70;;;;;;218826;1283;23485;-49
2023/08/09 12:35:47;;;;;;;1.60;1.10;;;23.80;60.50;;;;;;218724;1289;22529;-51
2023/08/09 12:40:51;;;;;;;3.60;1.90;;;23.90;60.80;;;;;;218713;1286;24105;-50
2023/08/09 12:45:55;;;;;;;3.60;1.10;;;23.90;60.40;;;;;;218573;1286;24441;-51
2023/08/09 12:51:00;;;;;;;2.20;1.30;;;23.90;60.40;;;;;;218540;1283;24229;-51
2023/08/09 12:56:04;;;;;;;2.30;1.50;;;23.90;60.40;;;;;;218765;1289;22555;-51
2023/08/09 13:01:10;;;;;;;2.40;1.20;;;23.90;60.80;;;;;;218928;1285;25494;-51
2023/08/09 13:06:18;;;;;;;2.50;1.40;;;24.00;60.40;;;;;;218770;1276;24255;-50
2023/08/09 13:11:22;;;;;;;2.10;1.20;;;24.00;60.40;;;;;;218776;1283;22581;-53
2023/08/09 13:16:26;;;;;;;1.60;1.30;;;24.00;60.40;;;;;;218680;1285;24282;-52
2023/08/09 13:21:31;;;;;;;1.60;1.10;;;24.10;60.30;;;;;;218501;1283;22550;-50
2023/08/09 13:26:35;;;;;;;1.80;1.30;;;24.10;60.00;;;;;;218903;1283;22648;-50
2023/08/09 13:31:39;;;;;;;1.30;1.20;;;24.20;60.40;;;;;;218832;1286;22534;-48
2023/08/09 13:36:44;;;;;;;1.80;1.10;;;24.20;59.90;;;;;;218735;1283;22687;-51
2023/08/09 13:41:49;;;;;;;2.00;1.10;;;24.20;60.00;;;;;;218731;1270;22632;-50
2023/08/09 13:46:53;;;;;;;1.30;1.20;;;24.20;60.00;;;;;;218780;1277;22537;-51
2023/08/09 13:51:57;;;;;;;2.10;1.20;;;24.30;59.90;;;;;;218816;1285;22569;-53
2023/08/09 13:57:01;;;;;;;1.30;1.20;;;24.30;59.80;;;;;;218612;1289;25593;-53
2023/08/09 14:02:06;;;;;;;1.80;1.20;;;24.30;59.90;;;;;;218920;1276;22537;-55
2023/08/09 14:07:10;;;;;;;2.20;1.40;;;24.30;59.80;;;;;;218970;1286;22686;-53
2023/08/09 14:12:14;;;;;;;2.50;1.10;;;24.30;59.90;;;;;;218799;1290;24250;-53
2023/08/09 14:17:19;;;;;;;1.80;1.00;;;24.40;59.50;;;;;;218563;1284;267928;-55
2023/08/09 14:22:23;;;;;;;2.20;1.30;;;24.50;59.30;;;;;;218751;1283;24271;-54
2023/08/09 14:27:27;;;;;;;1.20;1.10;;;24.50;59.30;;;;;;218760;1284;22694;-54
2023/08/09 14:32:33;;;;;;;2.40;1.40;;;24.40;59.60;;;;;;218779;1290;22691;-56
2023/08/09 14:37:39;;;;;;;1.50;1.10;;;24.30;60.70;;;;;;218606;1283;22537;-55
2023/08/09 14:42:43;;;;;;;2.70;1.40;;;24.30;60.60;;;;;;218906;1283;23861;-53
2023/08/09 14:47:48;;;;;;;2.70;1.40;;;24.40;60.40;;;;;;219041;1283;22546;-54
2023/08/09 14:52:53;;;;;;;1.30;1.20;;;24.40;61.40;;;;;;218958;1276;22777;-55
2023/08/09 14:57:58;;;;;;;3.30;1.40;;;24.40;60.50;;;;;;218657;1282;22636;-53
2023/08/09 15:03:03;;;;;;;1.10;1.00;;;24.40;60.30;;;;;;218721;1283;22540;-55
2023/08/09 15:08:09;;;;;;;3.60;1.30;;;24.50;59.80;;;;;;218317;1283;25411;-53
2023/08/09 15:13:15;;;;;;;1.50;1.10;;;24.50;59.60;;;;;;218918;1279;24256;-58
2023/08/09 15:18:21;;;;;;;1.90;1.40;;;24.60;59.10;;;;;;218608;1291;24388;-55
2023/08/09 15:23:27;;;;;;;1.10;1.00;;;24.60;59.30;;;;;;219102;1286;22461;-56
2023/08/09 15:28:32;;;;;;;2.00;1.40;;;24.60;59.10;;;;;;218701;1288;22659;-55
2023/08/09 15:33:36;;;;;;;1.50;1.30;;;24.50;59.50;;;;;;218990;1289;25506;-52
2023/08/09 15:38:41;;;;;;;1.40;1.10;;;24.50;59.60;;;;;;218802;1284;22630;-55
2023/08/09 15:43:45;;;;;;;1.80;1.20;;;24.40;59.70;;;;;;218961;1282;22634;-54
2023/08/09 15:48:50;;;;;;;3.90;1.40;;;24.50;59.30;;;;;;218931;1285;25303;-54
2023/08/09 15:53:54;;;;;;;1.60;1.10;;;24.50;59.00;;;;;;219029;1283;24228;-54
2023/08/09 15:58:58;;;;;;;1.30;1.20;;;24.50;58.80;;;;;;218915;1289;24093;-55
2023/08/09 16:04:03;;;;;;;1.30;1.10;;;24.50;58.70;;;;;;218797;1276;22790;-56
2023/08/09 16:09:14;;;;;;;2.70;1.20;;;24.50;58.90;;;;;;218885;1284;25657;-55
2023/08/09 16:14:19;;;;;;;2.40;1.30;;;24.40;59.10;;;;;;218746;1286;25529;-52
2023/08/09 16:19:23;;;;;;;1.40;1.30;;;24.40;59.10;;;;;;218843;1291;24258;-54
2023/08/09 16:24:27;;;;;;;3.90;1.30;;;24.40;59.30;;;;;;218802;1287;22570;-54
2023/08/09 16:29:32;;;;;;;2.60;1.30;;;24.40;59.90;;;;;;219080;1279;24401;-56
2023/08/09 16:34:38;;;;;;;4.60;1.20;;;24.40;60.00;;;;;;218867;1286;26544;-51
2023/08/09 16:39:43;;;;;;;8.20;1.70;;;24.50;59.80;;;;;;218505;1289;22685;-55
2023/08/09 16:44:47;;;;;;;3.60;1.50;;;24.40;59.80;;;;;;218762;1286;24257;-53
2023/08/09 16:49:51;;;;;;;5.10;1.40;;;24.40;58.30;;;;;;218889;1289;24243;-53
2023/08/09 16:54:55;;;;;;;6.50;1.70;;;24.40;58.10;;;;;;218559;1289;25344;-54
2023/08/09 17:00:14;;;;;;;4.00;1.40;;;24.30;57.80;;;;;;218881;1289;22547;-55
2023/08/09 17:05:19;;;;;;;2.60;1.60;;;24.10;56.40;;;;;;219043;1289;22659;-53
2023/08/09 17:10:26;;;;;;;1.70;1.30;;;24.30;56.10;;;;;;218628;1283;24237;-53
2023/08/09 17:15:30;;;;;;;5.40;1.60;;;24.40;55.80;;;;;;218692;1284;22551;-53
2023/08/09 17:20:35;;;;;;;3.90;1.50;;;24.50;56.10;;;;;;218253;1277;25247;-53
2023/08/09 17:25:40;;;;;;;2.30;1.70;;;24.40;55.60;;;;;;218926;1273;25037;-53
2023/08/09 17:30:46;;;;;;;4.60;1.30;;;24.40;55.40;;;;;;218567;1276;22713;-53
2023/08/09 17:35:50;;;;;;;8.40;1.80;;;24.40;55.00;;;;;;218349;1283;25406;-53
2023/08/09 17:40:56;;;;;;;3.20;1.60;;;24.40;54.80;;;;;;218287;1289;22831;-54
2023/08/09 17:46:01;;;;;;;7.70;1.40;;;24.50;54.50;;;;;;218724;1291;22540;-53
2023/08/09 17:51:07;;;;;;;3.70;1.10;;;24.40;54.70;;;;;;218483;1287;25294;-52
2023/08/09 17:56:16;;;;;;;2.70;1.40;;;24.40;54.70;;;;;;218960;1283;24181;-53
2023/08/09 18:01:23;;;;;;;4.40;3.90;;;24.30;54.50;;;;;;218834;1283;25444;-52
2023/08/09 18:06:29;;;;;;;4.40;2.30;;;24.30;54.80;;;;;;218697;1289;22533;-52
2023/08/09 18:11:33;;;;;;;2.60;2.40;;;24.40;54.80;;;;;;220012;1285;24315;-53
2023/08/09 18:16:45;;;;;;;2.30;2.10;;;24.50;54.20;;;;;;218606;1285;25306;-53
2023/08/09 18:21:51;;;;;;;3.50;2.40;;;24.40;54.40;;;;;;218701;1291;22915;-51
2023/08/09 18:26:56;;;;;;;2.00;1.80;;;24.30;54.70;;;;;;218676;1290;23006;-54
2023/08/09 18:32:07;;;;;;;3.00;1.90;;;24.30;54.60;;;;;;218827;1286;23936;-54
2023/08/09 18:37:14;;;;;;;4.40;1.60;;;24.50;54.50;;;;;;218734;1286;22552;-54
2023/08/09 18:42:23;;;;;;;1.80;1.70;;;24.40;54.50;;;;;;219047;1286;22551;-55
2023/08/09 18:47:29;;;;;;;2.20;2.00;;;24.40;54.90;;;;;;219233;1276;22538;-55
2023/08/09 18:52:39;;;;;;;3.80;2.00;;;24.30;55.00;;;;;;218761;1289;25431;-54
2023/08/09 18:58:01;;;;;;;2.10;1.80;;;24.20;55.30;;;;;;219048;1289;23190;-53
2023/08/09 19:03:11;;;;;;;8.30;2.90;;;24.20;55.80;;;;;;218857;1286;23809;-54
2023/08/09 19:08:21;;;;;;;5.50;2.60;;;24.20;56.20;;;;;;219022;1289;25141;-52
2023/08/09 19:13:29;;;;;;;7.50;2.70;;;24.20;57.50;;;;;;218978;1286;22538;-50
2023/08/09 19:18:35;;;;;;;4.70;2.40;;;24.20;57.50;;;;;;218778;1289;25217;-53
2023/08/09 19:23:40;;;;;;;8.10;2.50;;;24.20;58.10;;;;;;218826;1282;23951;-54
2023/08/09 19:28:45;;;;;;;5.50;2.50;;;24.10;57.80;;;;;;218649;1291;22547;-56
2023/08/09 19:33:52;;;;;;;4.80;2.50;;;24.00;57.80;;;;;;218766;1283;22536;-51
2023/08/09 19:38:57;;;;;;;7.30;2.50;;;23.90;57.90;;;;;;218760;1283;25437;-55
2023/08/09 19:44:02;;;;;;;5.30;2.90;;;24.00;57.90;;;;;;218797;1286;24454;-55
2023/08/09 19:49:07;;;;;;;3.70;2.40;;;23.90;58.30;;;;;;218896;1289;24366;-54
2023/08/09 19:54:16;;;;;;;9.80;2.60;;;23.90;57.30;;;;;;218758;1288;24253;-53
2023/08/09 19:59:22;;;;;;;6.00;2.90;;;23.80;57.60;;;;;;218600;1286;22552;-55
2023/08/09 20:04:27;;;;;;;7.90;2.90;;;23.90;58.20;;;;;;218656;1289;22565;-53
2023/08/09 20:09:34;;;;;;;3.70;2.00;;;23.90;57.90;;;;;;218400;1282;22595;-55
2023/08/09 20:14:40;;;;;;;4.40;2.20;;;24.00;57.90;;;;;;218864;1281;25381;-52
2023/08/09 20:19:46;;;;;;;6.20;2.20;;;23.90;58.10;;;;;;218426;1279;22706;-53
2023/08/09 20:24:55;;;;;;;6.80;2.30;;;23.90;57.80;;;;;;218693;1288;22647;-60
2023/08/09 20:30:04;;;;;;;4.70;2.30;;;23.90;58.60;;;;;;218780;1286;22563;-54
2023/08/09 20:35:13;;;;;;;4.30;2.70;;;23.90;57.50;;;;;;218609;1280;22536;-53
2023/08/09 20:40:20;;;;;;;8.10;2.40;;;23.80;57.60;;;;;;218394;1286;22563;-55
2023/08/09 20:45:26;;;;;;;3.00;2.00;;;23.80;57.40;;;;;;218584;1277;25309;-54
2023/08/09 20:50:31;;;;;;;6.40;2.40;;;23.80;57.30;;;;;;218360;1292;22559;-54
2023/08/09 20:55:41;;;;;;;8.30;2.40;;;23.80;57.00;;;;;;221583;1292;22560;-51
2023/08/09 21:00:47;;;;;;;3.90;2.30;;;23.90;58.10;;;;;;218507;1286;22801;-54
2023/08/09 21:05:55;;;;;;;8.00;2.40;;;24.00;57.90;;;;;;218526;1291;25409;-54
2023/08/09 21:11:01;;;;;;;4.40;2.30;;;23.80;56.90;;;;;;218940;1289;22548;-55
2023/08/09 21:16:06;;;;;;;2.30;2.00;;;23.80;57.80;;;;;;218794;1277;25369;-52
2023/08/09 21:21:11;;;;;;;2.60;2.40;;;23.70;57.90;;;;;;218777;1286;23645;-55
2023/08/09 21:26:18;;;;;;;2.40;2.30;;;23.70;57.80;;;;;;218757;1285;22576;-56
2023/08/09 21:31:23;;;;;;;2.90;2.60;;;23.60;57.10;;;;;;218726;1291;22552;-55
2023/08/09 21:36:27;;;;;;;4.00;2.40;;;23.70;57.40;;;;;;218804;1276;23920;-54
2023/08/09 21:41:35;;;;;;;3.20;1.90;;;23.70;57.10;;;;;;219185;1283;22553;-55
2023/08/09 21:46:40;;;;;;;2.80;2.30;;;23.70;57.00;;;;;;218591;1283;22548;-54
2023/08/09 21:51:45;;;;;;;2.00;1.90;;;23.60;57.20;;;;;;218921;1283;24123;-52
2023/08/09 21:56:53;;;;;;;3.80;2.20;;;23.70;57.40;;;;;;218743;1289;22529;-52
2023/08/09 22:01:57;;;;;;;2.20;2.00;;;23.50;57.50;;;;;;218759;1279;22555;-56
2023/08/09 22:07:03;;;;;;;2.70;1.50;;;23.60;57.30;;;;;;218955;1277;22539;-54
2023/08/09 22:12:07;;;;;;;2.50;2.10;;;23.60;57.70;;;;;;218887;1282;25021;-52
2023/08/09 22:17:12;;;;;;;2.80;2.00;;;23.50;57.40;;;;;;218967;1275;23502;-52
2023/08/09 22:22:16;;;;;;;3.70;1.90;;;23.60;57.00;;;;;;221005;1276;22828;-53
2023/08/09 22:27:22;;;;;;;2.30;2.10;;;23.60;56.90;;;;;;219738;1289;22552;-53
2023/08/09 22:32:27;;;;;;;2.50;2.30;;;23.60;57.10;;;;;;218788;1284;25440;-55
2023/08/09 22:37:35;;;;;;;2.20;2.00;;;23.50;57.00;;;;;;218792;1280;23920;-55
2023/08/09 22:42:40;;;;;;;4.50;2.40;;;23.50;56.80;;;;;;218882;1283;22655;-56
2023/08/09 22:47:44;;;;;;;7.00;2.50;;;23.40;57.50;;;;;;218684;1279;25291;-54
2023/08/09 22:52:48;;;;;;;13.80;2.10;;;23.50;57.60;;;;;;218639;1276;23943;-54
2023/08/09 22:57:52;;;;;;;5.30;1.80;;;23.40;57.80;;;;;;218806;1283;23278;-55
2023/08/09 23:02:57;;;;;;;4.90;2.00;;;23.50;57.70;;;;;;218944;1283;22921;-54
2023/08/09 23:08:03;;;;;;;6.20;2.00;;;23.60;57.80;;;;;;218939;1283;25459;-55
2023/08/09 23:13:08;;;;;;;6.50;1.90;;;23.60;57.90;;;;;;218810;1280;22543;-57
2023/08/09 23:18:15;;;;;;;5.10;2.20;;;23.50;58.40;;;;;;218744;1277;22517;-56
2023/08/09 23:23:21;;;;;;;4.50;2.20;;;23.40;58.30;;;;;;218739;1283;25419;-54
2023/08/09 23:28:26;;;;;;;2.40;2.00;;;23.40;58.40;;;;;;219127;1289;22522;-54
2023/08/09 23:33:30;;;;;;;3.90;2.00;;;23.40;58.90;;;;;;218849;1279;22550;-54
2023/08/09 23:38:34;;;;;;;2.80;1.80;;;23.50;59.10;;;;;;218895;1276;24289;-54
2023/08/09 23:43:38;;;;;;;2.80;1.70;;;23.40;58.90;;;;;;218891;1289;22568;-58
2023/08/09 23:48:43;;;;;;;3.60;2.40;;;23.40;59.30;;;;;;218612;1276;22602;-58
2023/08/09 23:53:47;;;;;;;2.30;1.80;;;23.40;58.80;;;;;;218782;1286;22645;-58
2023/08/09 23:58:52;;;;;;;2.90;1.80;;;23.50;59.00;;;;;;218633;1286;22552;-55
